Terminal Aerodrome Forecast
Issued by NWS Shreveport, LA

Home | Current Version | Previous Version | Text Only | Print | Product List | Glossary On
Versions: 1 2 3 4 5 6 7 8 9 10 11 12 13 14 15 16
000
FTUS44 KSHV 201700 RRA
TAFLFK
TAF
KLFK 201754Z 2018/2118 16007KT P6SM SCT035 BKN045
     FM210600 14007KT P6SM VCSH OVC025
     FM211100 14007KT 5SM -RA BR SCT008 OVC015
     FM211500 14009KT P6SM BKN017=

USA.gov is the U.S. government's official web portal to all federal, state and local government web resources and services.